Danevang, Texas
Current Conditions -  °F | °C
As of 4:55 AM on Sunday 23 Nov 2014 (Local Time) from KARM Reporting Station
Clear Clear  
Wind Chill: 58°   Ceiling: Unl
Heat Index: 58°   Visibility: 10mi
Dew Point: 57°   Wind: 8mph
Humidity: 96%   Direction: 240°WSW
Pressure: 29.7"   Gusts: NA
Location:  29.06°N, 96.21°W
Report Text: KARM 231055Z AUTO 24007KT 10SM CLR 15/14 A2970 RMK AO2 T01470141
Loading
Personal Weather Stations






























Interactive Weather Map New forecast layout! Learn more

10-Day Weather Forecast

Advertisements
Track Severe Weather on mobile